createdAt,value
2022-11-13T00:01:38.670Z,17.13
2022-11-13T00:04:08.580Z,14.83
2022-11-13T00:06:38.336Z,14.30
2022-11-13T00:09:08.137Z,18.33
2022-11-13T00:11:40.470Z,15.10
2022-11-13T00:14:10.265Z,15.90
2022-11-13T00:16:39.976Z,14.27
2022-11-13T00:19:09.723Z,14.37
2022-11-13T00:21:39.439Z,15.70
2022-11-13T00:24:10.026Z,18.33
2022-11-13T00:26:43.171Z,14.90
2022-11-13T00:29:12.943Z,17.67
2022-11-13T00:31:42.665Z,17.03
2022-11-13T00:34:41.049Z,16.47
2022-11-13T00:37:03.022Z,15.53
2022-11-13T00:39:32.713Z,14.20
2022-11-13T00:42:05.022Z,14.80
2022-11-13T00:44:34.729Z,14.80
2022-11-13T00:47:04.420Z,15.10
2022-11-13T00:49:34.095Z,15.97
2022-11-13T00:52:03.867Z,16.90
2022-11-13T00:54:33.688Z,17.67
2022-11-13T00:57:06.072Z,20.10
2022-11-13T00:59:35.762Z,18.33
2022-11-13T01:02:05.533Z,20.47
2022-11-13T01:04:35.245Z,21.00
2022-11-13T01:07:04.971Z,21.33
2022-11-13T01:09:34.755Z,22.53
2022-11-13T01:12:07.735Z,21.30
2022-11-13T01:14:37.475Z,20.47
2022-11-13T01:17:07.181Z,21.77
2022-11-13T01:19:36.931Z,22.93
2022-11-13T01:22:06.739Z,22.20
2022-11-13T01:24:36.408Z,20.77
2022-11-13T01:27:08.727Z,21.87
2022-11-13T01:29:40.044Z,20.27
2022-11-13T01:32:09.828Z,20.60
2022-11-13T01:34:39.632Z,18.93
2022-11-13T01:37:09.371Z,20.60
2022-11-13T01:39:39.101Z,18.07
2022-11-13T01:42:11.509Z,19.73
2022-11-13T01:44:52.549Z,19.53
2022-11-13T01:47:23.932Z,19.40
2022-11-13T01:49:56.719Z,20.73
2022-11-13T01:52:30.061Z,18.93
2022-11-13T01:55:04.133Z,18.00
2022-11-13T01:57:37.256Z,16.63
2022-11-13T02:00:10.480Z,15.97
2022-11-13T02:02:44.929Z,18.63
2022-11-13T02:05:14.651Z,17.93
2022-11-13T02:07:44.381Z,18.97
2022-11-13T02:10:14.076Z,18.33
2022-11-13T02:12:52.349Z,21.87
2022-11-13T02:15:25.571Z,19.37
2022-11-13T02:17:58.477Z,18.57
2022-11-13T02:20:35.296Z,16.53
2022-11-13T02:23:14.615Z,15.33
2022-11-13T02:25:50.120Z,15.60
2022-11-13T02:28:20.274Z,16.30
2022-11-13T02:30:50.047Z,15.43
2022-11-13T02:33:27.020Z,19.70
2022-11-13T02:35:56.740Z,21.57
2022-11-13T02:38:27.010Z,17.83
2022-11-13T02:40:59.550Z,17.43
2022-11-13T02:43:29.291Z,19.90
2022-11-13T02:45:59.012Z,20.87
2022-11-13T02:48:28.858Z,20.60
2022-11-13T02:50:58.716Z,22.57
2022-11-13T02:53:28.460Z,18.37
2022-11-13T02:56:00.753Z,19.77
2022-11-13T02:58:30.930Z,20.50
2022-11-13T03:01:00.961Z,24.67
2022-11-13T03:03:56.378Z,19.00
2022-11-13T03:06:20.420Z,21.07
2022-11-13T03:08:50.201Z,22.13
2022-11-13T03:11:22.526Z,19.07
2022-11-13T03:13:52.471Z,20.40
2022-11-13T03:16:22.385Z,20.70
2022-11-13T03:18:52.108Z,18.37
2022-11-13T03:21:21.832Z,18.30
2022-11-13T03:23:51.590Z,17.73
2022-11-13T03:26:24.203Z,18.23
2022-11-13T03:28:53.956Z,18.63
2022-11-13T03:31:24.135Z,15.80
2022-11-13T03:33:55.693Z,15.90
2022-11-13T03:36:25.509Z,15.13
2022-11-13T03:38:55.344Z,16.27
2022-11-13T03:41:27.713Z,18.50
2022-11-13T03:43:57.415Z,17.67
2022-11-13T03:46:27.144Z,16.47
2022-11-13T03:48:56.834Z,15.83
2022-11-13T03:51:26.576Z,15.33
2022-11-13T03:53:57.156Z,15.80
2022-11-13T03:56:29.667Z,16.90
2022-11-13T03:58:59.380Z,16.37
2022-11-13T04:01:29.236Z,14.07
2022-11-13T04:03:59.023Z,14.00
2022-11-13T04:06:28.744Z,15.40
2022-11-13T04:08:58.471Z,15.83
2022-11-13T04:11:31.137Z,13.87
2022-11-13T04:14:00.843Z,13.23
2022-11-13T04:16:30.541Z,19.53
2022-11-13T04:19:00.322Z,18.13
2022-11-13T04:21:30.661Z,19.67
2022-11-13T04:24:00.375Z,19.07
2022-11-13T04:26:32.675Z,16.40
2022-11-13T04:29:03.579Z,18.17
2022-11-13T04:31:33.507Z,17.43
2022-11-13T04:34:04.386Z,18.77
2022-11-13T04:36:34.120Z,18.57
2022-11-13T04:39:03.813Z,16.23
2022-11-13T04:41:52.610Z,18.37
2022-11-13T04:44:24.942Z,17.47
2022-11-13T04:46:55.824Z,19.37
2022-11-13T04:49:25.594Z,19.13
2022-11-13T04:51:55.310Z,17.63
2022-11-13T04:54:28.770Z,14.67
2022-11-13T04:57:01.407Z,19.67
2022-11-13T04:59:31.127Z,17.77
2022-11-13T05:02:00.950Z,17.77
2022-11-13T05:04:30.699Z,18.40
2022-11-13T05:07:00.464Z,16.73
2022-11-13T05:09:30.181Z,17.27
2022-11-13T05:12:02.526Z,17.30
2022-11-13T05:14:32.264Z,20.63
2022-11-13T05:17:01.985Z,17.73
2022-11-13T05:19:31.811Z,15.30
2022-11-13T05:22:01.731Z,16.10
2022-11-13T05:24:31.471Z,16.17
2022-11-13T05:27:03.779Z,16.40
2022-11-13T05:29:33.506Z,16.20
2022-11-13T05:32:03.201Z,14.80
2022-11-13T05:34:32.925Z,14.10
2022-11-13T05:37:02.637Z,14.33
2022-11-13T05:39:32.387Z,15.13
2022-11-13T05:42:05.805Z,13.30
2022-11-13T05:44:35.507Z,15.90
2022-11-13T05:47:05.234Z,18.23
2022-11-13T05:49:34.922Z,14.67
2022-11-13T05:52:04.648Z,16.37
2022-11-13T05:54:34.411Z,14.73
2022-11-13T05:57:06.885Z,15.10
2022-11-13T05:59:36.612Z,16.70
2022-11-13T06:02:06.580Z,14.63
2022-11-13T06:04:36.628Z,15.13
2022-11-13T06:07:06.432Z,16.93
2022-11-13T06:09:36.208Z,15.33
2022-11-13T06:12:08.976Z,17.00
2022-11-13T06:14:38.705Z,17.00
2022-11-13T06:17:08.438Z,15.27
2022-11-13T06:19:38.152Z,14.87
2022-11-13T06:22:07.840Z,16.43
2022-11-13T06:24:37.564Z,14.73
2022-11-13T06:27:09.944Z,16.07
2022-11-13T06:29:40.871Z,15.90
2022-11-13T06:32:10.704Z,14.57
2022-11-13T06:34:40.463Z,15.87
2022-11-13T06:37:10.184Z,16.93
2022-11-13T06:39:39.943Z,13.40
2022-11-13T06:42:12.321Z,14.83
2022-11-13T06:44:42.060Z,13.13
2022-11-13T06:47:11.911Z,12.43
2022-11-13T06:49:41.603Z,12.20
2022-11-13T06:52:11.295Z,12.80
2022-11-13T06:54:41.005Z,13.10
2022-11-13T06:57:13.322Z,11.43
2022-11-13T06:59:43.762Z,11.47
2022-11-13T07:02:14.547Z,11.87
2022-11-13T07:04:44.253Z,12.43
2022-11-13T07:07:13.958Z,16.20
2022-11-13T07:09:43.748Z,14.57
2022-11-13T07:12:16.179Z,12.93
2022-11-13T07:14:45.908Z,12.67
2022-11-13T07:17:16.241Z,14.00
2022-11-13T07:19:45.964Z,13.03
2022-11-13T07:22:15.808Z,12.63
2022-11-13T07:24:45.795Z,13.37
2022-11-13T07:27:18.467Z,12.87
2022-11-13T07:29:48.343Z,12.40
2022-11-13T07:32:18.086Z,13.27
2022-11-13T07:34:47.846Z,12.57
2022-11-13T07:37:17.624Z,13.13
2022-11-13T07:39:47.380Z,13.93
2022-11-13T07:42:19.700Z,15.00
2022-11-13T07:44:54.649Z,12.13
2022-11-13T07:47:25.479Z,13.40
2022-11-13T07:50:01.826Z,13.57
2022-11-13T07:52:34.516Z,15.13
2022-11-13T07:55:04.583Z,16.47
2022-11-13T07:57:37.019Z,18.17
2022-11-13T08:00:07.768Z,18.60
2022-11-13T08:02:37.506Z,15.73
2022-11-13T08:05:07.666Z,15.37
2022-11-13T08:07:37.481Z,15.97
2022-11-13T08:10:08.112Z,13.10
2022-11-13T08:12:40.431Z,14.73
2022-11-13T08:15:13.491Z,13.87
2022-11-13T08:17:43.935Z,14.37
2022-11-13T08:20:14.832Z,15.63
2022-11-13T08:22:44.571Z,15.03
2022-11-13T08:25:14.283Z,15.17
2022-11-13T08:27:47.096Z,14.33
2022-11-13T08:30:17.936Z,13.33
2022-11-13T08:32:50.096Z,15.17
2022-11-13T08:35:23.964Z,14.57
2022-11-13T08:37:56.493Z,14.03
2022-11-13T08:40:27.458Z,15.67
2022-11-13T08:43:01.822Z,14.90
2022-11-13T08:45:32.323Z,14.33
2022-11-13T08:48:03.123Z,14.27
2022-11-13T08:50:33.651Z,16.63
2022-11-13T08:53:04.207Z,14.80
2022-11-13T08:55:36.190Z,14.97
2022-11-13T08:58:09.206Z,14.57
2022-11-13T09:00:39.004Z,14.00
2022-11-13T09:03:09.145Z,14.37
2022-11-13T09:05:38.927Z,14.67
2022-11-13T09:08:10.802Z,13.20
2022-11-13T09:10:40.615Z,14.20
2022-11-13T09:13:13.534Z,13.93
2022-11-13T09:15:44.142Z,13.00
2022-11-13T09:18:13.921Z,14.43
2022-11-13T09:20:43.630Z,14.17
2022-11-13T09:23:13.936Z,14.90
2022-11-13T09:25:43.691Z,12.93
2022-11-13T09:28:16.205Z,14.70
2022-11-13T09:30:47.108Z,12.93
2022-11-13T09:33:17.209Z,16.63
2022-11-13T09:35:47.835Z,13.83
2022-11-13T09:38:18.507Z,15.13
2022-11-13T09:40:53.805Z,13.37
2022-11-13T09:43:37.980Z,12.17
2022-11-13T09:46:16.322Z,12.30
2022-11-13T09:48:52.766Z,12.03
2022-11-13T09:51:25.878Z,12.90
2022-11-13T09:53:55.962Z,11.10
2022-11-13T09:56:30.842Z,14.03
2022-11-13T09:59:16.934Z,10.13
2022-11-13T10:01:57.825Z,11.43
2022-11-13T10:04:37.640Z,10.97
2022-11-13T10:07:19.891Z,11.37
2022-11-13T10:10:03.407Z,12.10
2022-11-13T10:12:36.607Z,10.43
2022-11-13T10:15:11.913Z,10.13
2022-11-13T10:17:45.656Z,11.37
2022-11-13T10:20:18.983Z,9.97
2022-11-13T10:22:54.251Z,11.63
2022-11-13T10:25:28.648Z,11.07
2022-11-13T10:28:04.568Z,9.90
2022-11-13T10:30:49.756Z,9.80
2022-11-13T10:33:22.488Z,9.40
2022-11-13T10:35:58.416Z,11.38
2022-11-13T10:38:35.114Z,11.20
2022-11-13T10:41:12.349Z,11.57
2022-11-13T10:43:58.316Z,11.10
2022-11-13T10:46:33.189Z,11.70
2022-11-13T10:49:14.930Z,10.40
2022-11-13T10:51:47.184Z,10.90
2022-11-13T10:54:26.311Z,11.10
2022-11-13T10:57:01.115Z,11.67
2022-11-13T10:59:41.798Z,10.93
2022-11-13T11:02:20.615Z,13.63
2022-11-13T11:04:50.568Z,12.13
2022-11-13T11:07:22.550Z,11.93
2022-11-13T11:09:54.385Z,10.43
2022-11-13T11:12:30.984Z,10.82
2022-11-13T11:15:08.531Z,10.53
2022-11-13T11:17:47.808Z,10.20
2022-11-13T11:20:26.042Z,10.93
2022-11-13T11:23:00.659Z,10.48
2022-11-13T11:25:39.226Z,10.55
2022-11-13T11:28:16.475Z,12.23
2022-11-13T11:30:52.551Z,10.15
2022-11-13T11:33:33.604Z,9.67
2022-11-13T11:36:11.348Z,9.57
2022-11-13T11:38:49.464Z,11.60
2022-11-13T11:41:23.114Z,11.83
2022-11-13T11:44:02.327Z,11.07
2022-11-13T11:46:33.574Z,11.80
2022-11-13T11:49:06.449Z,11.40
2022-11-13T11:51:46.561Z,11.52
2022-11-13T11:54:26.133Z,11.75
2022-11-13T11:56:59.997Z,11.60
2022-11-13T11:59:40.758Z,13.75
2022-11-13T12:02:38.584Z,11.63
2022-11-13T12:05:23.943Z,12.50
2022-11-13T12:08:02.835Z,12.20
2022-11-13T12:10:44.340Z,11.15
2022-11-13T12:13:29.304Z,12.30
2022-11-13T12:16:05.050Z,11.18
2022-11-13T12:18:47.594Z,11.23
2022-11-13T12:21:27.078Z,20.30
2022-11-13T12:24:26.307Z,12.43
2022-11-13T12:27:09.683Z,12.63
2022-11-13T12:29:52.291Z,11.75
2022-11-13T12:32:37.588Z,11.20
2022-11-13T12:35:12.981Z,9.33
2022-11-13T12:37:52.725Z,10.02
2022-11-13T12:40:29.740Z,10.43
2022-11-13T12:43:10.748Z,12.07
2022-11-13T12:45:53.705Z,10.25
2022-11-13T12:48:30.322Z,10.27
2022-11-13T12:51:02.076Z,10.23
2022-11-13T12:53:47.667Z,10.63
2022-11-13T12:56:20.692Z,10.00
2022-11-13T12:59:28.580Z,10.48
2022-11-13T13:01:51.445Z,10.35
2022-11-13T13:04:45.256Z,11.97
2022-11-13T13:07:28.236Z,10.95
2022-11-13T13:10:15.565Z,9.60
2022-11-13T13:12:57.452Z,10.70
2022-11-13T13:15:34.691Z,11.83
2022-11-13T13:18:11.639Z,10.77
2022-11-13T13:20:43.759Z,11.30
2022-11-13T13:23:15.761Z,10.77
2022-11-13T13:25:48.084Z,11.27
2022-11-13T13:28:21.727Z,10.57
2022-11-13T13:30:57.410Z,11.97
2022-11-13T13:33:35.919Z,11.43
2022-11-13T13:36:15.771Z,11.65
2022-11-13T13:38:56.433Z,9.82
2022-11-13T13:41:41.271Z,10.10
2022-11-13T13:44:40.616Z,12.00
2022-11-13T13:47:17.955Z,10.70
2022-11-13T13:49:47.773Z,10.73
2022-11-13T13:52:18.881Z,11.45
2022-11-13T13:54:48.961Z,10.50
2022-11-13T13:57:22.114Z,11.35
2022-11-13T13:59:53.672Z,11.40
2022-11-13T14:02:25.302Z,12.50
2022-11-13T14:04:57.267Z,11.48
2022-11-13T14:07:30.043Z,11.23
2022-11-13T14:10:11.532Z,11.40
2022-11-13T14:12:45.050Z,11.25
2022-11-13T14:15:26.476Z,11.60
2022-11-13T14:18:07.230Z,12.70
2022-11-13T14:20:44.829Z,10.93
2022-11-13T14:23:18.193Z,10.17
2022-11-13T14:25:49.107Z,12.00
2022-11-13T14:28:23.654Z,13.57
2022-11-13T14:30:58.668Z,15.07
2022-11-13T14:33:33.454Z,11.70
2022-11-13T14:36:04.123Z,12.65
2022-11-13T14:38:37.937Z,11.33
2022-11-13T14:41:08.117Z,12.43
2022-11-13T14:43:40.532Z,12.30
2022-11-13T14:46:31.459Z,12.20
2022-11-13T14:49:01.196Z,12.57
2022-11-13T14:51:33.484Z,11.98
2022-11-13T14:54:08.829Z,12.97
2022-11-13T14:56:41.410Z,11.38
2022-11-13T14:59:19.750Z,11.00
2022-11-13T15:01:57.417Z,12.35
2022-11-13T15:04:28.641Z,12.20
2022-11-13T15:07:01.890Z,12.85
2022-11-13T15:09:33.596Z,11.95
2022-11-13T15:12:03.407Z,13.83
2022-11-13T15:14:36.270Z,13.13
2022-11-13T15:17:06.704Z,11.97
2022-11-13T15:19:40.033Z,12.05
2022-11-13T15:22:26.541Z,13.30
2022-11-13T15:24:57.615Z,15.67
2022-11-13T15:27:27.347Z,15.23
2022-11-13T15:29:59.705Z,15.32
2022-11-13T15:32:29.518Z,17.70
2022-11-13T15:34:59.263Z,15.13
2022-11-13T15:37:28.963Z,12.57
2022-11-13T15:39:59.069Z,15.63
2022-11-13T15:42:33.021Z,13.97
2022-11-13T15:45:06.200Z,13.37
2022-11-13T15:47:37.887Z,15.37
2022-11-13T15:50:13.893Z,13.90
2022-11-13T15:52:46.555Z,12.88
2022-11-13T15:55:24.320Z,14.83
2022-11-13T15:57:55.693Z,12.73
2022-11-13T16:00:29.631Z,11.55
2022-11-13T16:03:00.499Z,13.07
2022-11-13T16:05:31.005Z,12.15
2022-11-13T16:08:00.716Z,12.73
2022-11-13T16:10:30.447Z,12.07
2022-11-13T16:13:00.158Z,13.90
2022-11-13T16:15:32.516Z,12.75
2022-11-13T16:18:03.653Z,12.30
2022-11-13T16:20:33.357Z,14.47
2022-11-13T16:23:03.084Z,11.57
2022-11-13T16:25:32.822Z,14.23
2022-11-13T16:28:02.673Z,12.40
2022-11-13T16:30:35.035Z,13.30
2022-11-13T16:33:08.099Z,12.47
2022-11-13T16:35:37.948Z,13.87
2022-11-13T16:38:14.743Z,12.13
2022-11-13T16:40:45.743Z,13.93
2022-11-13T16:43:16.722Z,14.47
2022-11-13T16:45:49.190Z,13.90
2022-11-13T16:48:19.252Z,14.70
2022-11-13T16:50:49.084Z,13.37
2022-11-13T16:53:18.843Z,15.77
2022-11-13T16:55:48.520Z,12.73
2022-11-13T16:58:18.217Z,15.43
2022-11-13T17:00:50.531Z,15.75
2022-11-13T17:03:20.213Z,14.93
2022-11-13T17:05:54.505Z,14.60
2022-11-13T17:08:24.206Z,16.57
2022-11-13T17:10:59.666Z,15.23
2022-11-13T17:13:30.177Z,16.10
2022-11-13T17:16:05.817Z,15.17
2022-11-13T17:18:35.535Z,14.40
2022-11-13T17:21:06.631Z,15.97
2022-11-13T17:23:36.832Z,13.00
2022-11-13T17:26:07.120Z,13.67
2022-11-13T17:28:36.976Z,12.83
2022-11-13T17:31:12.712Z,13.07
2022-11-13T17:33:43.083Z,16.47
2022-11-13T17:36:13.377Z,14.67
2022-11-13T17:38:43.309Z,14.57
2022-11-13T17:41:15.438Z,13.93
2022-11-13T17:43:45.853Z,14.57
2022-11-13T17:46:19.592Z,14.50
2022-11-13T17:48:49.825Z,14.20
2022-11-13T17:51:19.582Z,14.47
2022-11-13T17:53:49.330Z,14.67
2022-11-13T17:56:20.335Z,14.87
2022-11-13T17:58:50.029Z,14.03
2022-11-13T18:01:25.302Z,14.50
2022-11-13T18:03:58.222Z,14.27
2022-11-13T18:06:28.817Z,13.50
2022-11-13T18:08:58.597Z,13.93
2022-11-13T18:11:30.303Z,14.00
2022-11-13T18:14:00.111Z,16.07
2022-11-13T18:16:34.690Z,15.83
2022-11-13T18:19:07.070Z,15.27
2022-11-13T18:21:38.491Z,16.93
2022-11-13T18:24:10.977Z,15.40
2022-11-13T18:26:40.748Z,16.07
2022-11-13T18:29:11.404Z,19.63
2022-11-13T18:31:44.545Z,17.40
2022-11-13T18:34:19.362Z,19.27
2022-11-13T18:36:51.157Z,16.50
2022-11-13T18:39:20.901Z,15.57
2022-11-13T18:41:50.955Z,15.50
2022-11-13T18:44:20.723Z,17.53
2022-11-13T18:46:53.417Z,16.40
2022-11-13T18:49:23.347Z,19.23
2022-11-13T18:51:53.072Z,19.63
2022-11-13T18:54:23.199Z,22.17
2022-11-13T18:56:53.616Z,18.37
2022-11-13T18:59:24.778Z,21.00
2022-11-13T19:01:57.361Z,20.63
2022-11-13T19:04:27.194Z,18.93
2022-11-13T19:06:57.488Z,19.53
2022-11-13T19:09:27.399Z,20.40
2022-11-13T19:11:57.278Z,19.17
2022-11-13T19:14:27.096Z,20.30
2022-11-13T19:16:59.454Z,20.20
2022-11-13T19:19:29.184Z,19.10
2022-11-13T19:21:58.932Z,20.33
2022-11-13T19:24:28.655Z,21.13
2022-11-13T19:26:58.399Z,18.93
2022-11-13T19:29:28.110Z,18.57
2022-11-13T19:32:00.439Z,20.23
2022-11-13T19:34:30.328Z,18.70
2022-11-13T19:37:00.013Z,19.63
2022-11-13T19:39:29.821Z,18.47
2022-11-13T19:41:59.632Z,20.23
2022-11-13T19:44:29.436Z,21.77
2022-11-13T19:47:01.904Z,18.03
2022-11-13T19:49:31.675Z,21.30
2022-11-13T19:52:01.455Z,21.27
2022-11-13T19:54:31.496Z,20.93
2022-11-13T19:57:01.275Z,21.23
2022-11-13T19:59:32.305Z,21.00
2022-11-13T20:02:04.738Z,22.00
2022-11-13T20:04:34.501Z,23.63
2022-11-13T20:07:04.281Z,20.50
2022-11-13T20:09:34.243Z,20.90
2022-11-13T20:12:03.979Z,25.10
2022-11-13T20:14:38.087Z,23.20
2022-11-13T20:17:10.808Z,24.10
2022-11-13T20:19:40.599Z,22.47
2022-11-13T20:22:10.341Z,26.33
2022-11-13T20:24:40.296Z,27.20
2022-11-13T20:27:10.320Z,28.27
2022-11-13T20:29:40.082Z,26.00
2022-11-13T20:32:12.864Z,28.80
2022-11-13T20:34:42.619Z,30.70
2022-11-13T20:37:12.380Z,36.27
2022-11-13T20:39:42.480Z,38.33
2022-11-13T20:42:12.257Z,44.30
2022-11-13T20:44:42.039Z,44.63
2022-11-13T20:47:14.441Z,38.57
2022-11-13T20:49:44.153Z,39.10
2022-11-13T20:52:14.048Z,37.43
2022-11-13T20:54:43.924Z,38.30
2022-11-13T20:57:13.793Z,40.33
2022-11-13T20:59:43.513Z,39.43
2022-11-13T21:02:16.161Z,42.60
2022-11-13T21:04:45.854Z,39.47
2022-11-13T21:07:15.625Z,37.23
2022-11-13T21:09:48.935Z,40.40
2022-11-13T21:12:19.847Z,45.47
2022-11-13T21:14:51.441Z,40.63
2022-11-13T21:17:23.807Z,42.93
2022-11-13T21:19:56.620Z,40.70
2022-11-13T21:22:27.479Z,43.23
2022-11-13T21:24:57.216Z,43.47
2022-11-13T21:27:26.931Z,43.23
2022-11-13T21:29:56.847Z,45.97
2022-11-13T21:32:29.181Z,41.50
2022-11-13T21:34:59.385Z,40.07
2022-11-13T21:37:29.184Z,40.33
2022-11-13T21:39:58.948Z,43.03
2022-11-13T21:42:28.702Z,41.53
2022-11-13T21:45:01.365Z,41.03
2022-11-13T21:47:33.878Z,38.00
2022-11-13T21:50:03.650Z,42.20
2022-11-13T21:52:33.840Z,43.80
2022-11-13T21:55:03.563Z,43.07
2022-11-13T21:57:33.303Z,44.13
2022-11-13T22:00:02.991Z,44.63
2022-11-13T22:02:35.380Z,46.57
2022-11-13T22:05:05.102Z,46.37
2022-11-13T22:07:34.790Z,49.30
2022-11-13T22:10:08.368Z,52.47
2022-11-13T22:12:38.507Z,50.67
2022-11-13T22:15:09.862Z,48.47
2022-11-13T22:17:42.657Z,57.73
2022-11-13T22:20:12.933Z,60.77
2022-11-13T22:22:42.646Z,62.87
2022-11-13T22:25:12.701Z,57.07
2022-11-13T22:27:42.418Z,62.43
2022-11-13T22:30:13.558Z,56.47
2022-11-13T22:32:45.877Z,58.40
2022-11-13T22:35:15.564Z,55.03
2022-11-13T22:37:45.292Z,54.70
2022-11-13T22:40:16.118Z,55.23
2022-11-13T22:42:45.967Z,63.73
2022-11-13T22:45:23.592Z,61.43
2022-11-13T22:47:56.463Z,54.50
2022-11-13T22:50:26.174Z,56.97
2022-11-13T22:52:55.854Z,61.73
2022-11-13T22:55:25.546Z,54.83
2022-11-13T22:57:55.239Z,54.03
2022-11-13T23:00:24.991Z,51.47
2022-11-13T23:02:57.293Z,53.03
2022-11-13T23:05:26.980Z,53.07
2022-11-13T23:07:56.718Z,53.07
2022-11-13T23:10:26.404Z,48.13
2022-11-13T23:12:56.127Z,51.30
2022-11-13T23:15:25.809Z,52.27
2022-11-13T23:17:58.160Z,42.30
2022-11-13T23:20:27.851Z,44.67
2022-11-13T23:22:57.548Z,44.80
2022-11-13T23:25:27.275Z,44.37
2022-11-13T23:27:56.974Z,44.20
2022-11-13T23:30:26.692Z,40.83
2022-11-13T23:32:59.079Z,42.33
2022-11-13T23:35:28.807Z,42.87
2022-11-13T23:37:58.505Z,40.67
2022-11-13T23:40:28.340Z,39.23
2022-11-13T23:42:58.084Z,35.33
2022-11-13T23:45:27.805Z,36.47
2022-11-13T23:48:00.126Z,38.63
2022-11-13T23:50:30.691Z,41.27
2022-11-13T23:53:00.590Z,36.23
2022-11-13T23:55:30.294Z,37.93
2022-11-13T23:58:01.134Z,35.30
